Time;durP1;ratioP1;P1;durP2;ratioP2;P2;SDS_P1;SDS_P2;PMS_P1;PMS_P2;Temp;Humidity;BMP_temperature;BMP_pressure;BME280_temperature;BME280_humidity;BME280_pressure;Samples;Min_cycle;Max_cycle;Signal;HPM_P1;HPM_P2
2021/06/14 00:02:07;;;;;;;11.77;10.50;;;23.40;99.00;;;;;;5091663;28;20031;-79
2021/06/14 00:04:33;;;;;;;16.70;11.15;;;23.40;99.00;;;;;;5093065;28;20020;-79
2021/06/14 00:06:59;;;;;;;12.10;10.40;;;23.50;98.90;;;;;;5074636;28;20016;-78
2021/06/14 00:09:25;;;;;;;15.45;11.40;;;23.50;99.10;;;;;;5092975;28;20073;-78
2021/06/14 00:11:52;;;;;;;16.65;11.65;;;23.40;99.60;;;;;;5092947;28;20029;-78
2021/06/14 00:14:19;;;;;;;13.38;10.80;;;23.30;99.70;;;;;;5092920;28;20478;-79
2021/06/14 00:16:45;;;;;;;12.00;10.32;;;23.30;99.80;;;;;;5093071;28;20039;-79
2021/06/14 00:19:11;;;;;;;12.32;10.27;;;23.20;99.90;;;;;;5092633;28;20482;-78
2021/06/14 00:21:37;;;;;;;13.43;11.40;;;23.20;99.90;;;;;;5092710;28;20487;-79
2021/06/14 00:24:04;;;;;;;15.00;11.40;;;23.20;99.90;;;;;;5093186;28;20164;-78
2021/06/14 00:26:30;;;;;;;11.52;9.68;;;23.20;99.90;;;;;;5074657;28;20161;-79
2021/06/14 00:28:56;;;;;;;14.00;10.93;;;23.20;99.90;;;;;;5093057;28;20109;-78
2021/06/14 00:31:22;;;;;;;20.00;10.50;;;23.10;99.90;;;;;;5092507;28;20031;-78
2021/06/14 00:33:48;;;;;;;14.50;11.18;;;23.20;99.90;;;;;;5092693;28;20051;-78
2021/06/14 00:36:13;;;;;;;15.90;10.98;;;23.20;98.50;;;;;;5092592;28;20032;-78
2021/06/14 00:38:39;;;;;;;13.45;10.77;;;23.30;98.50;;;;;;5092805;28;20044;-78
2021/06/14 00:41:06;;;;;;;17.45;11.13;;;23.20;99.30;;;;;;5092558;28;20545;-78
2021/06/14 00:43:33;;;;;;;12.48;10.63;;;23.30;98.90;;;;;;5092824;28;20108;-78
2021/06/14 00:45:58;;;;;;;13.00;9.95;;;23.30;99.10;;;;;;5092744;28;20021;-78
2021/06/14 00:48:24;;;;;;;12.82;10.10;;;23.30;99.10;;;;;;5068515;28;20021;-78
2021/06/14 00:50:52;;;;;;;11.43;10.07;;;23.30;99.40;;;;;;5092567;28;20016;-78
2021/06/14 00:53:33;;;;;;;10.90;9.90;;;23.30;99.60;;;;;;5074115;28;20036;-78
2021/06/14 00:56:01;;;;;;;14.07;9.98;;;23.30;99.50;;;;;;5087860;28;20031;-78
2021/06/14 00:58:27;;;;;;;12.68;11.38;;;23.20;99.50;;;;;;5062568;28;20436;-78
2021/06/14 01:00:53;;;;;;;14.48;11.40;;;23.20;99.70;;;;;;5084285;28;20355;-79
2021/06/14 01:03:20;;;;;;;12.45;10.65;;;23.10;99.80;;;;;;5074108;28;20536;-79
2021/06/14 01:05:55;;;;;;;14.82;11.15;;;23.00;99.90;;;;;;5088018;28;20091;-78
2021/06/14 01:08:20;;;;;;;14.02;11.15;;;23.00;99.90;;;;;;5072287;28;20036;-78
2021/06/14 01:10:49;;;;;;;18.73;10.88;;;23.00;99.90;;;;;;5079450;28;20024;-79
2021/06/14 01:13:38;;;;;;;16.05;10.85;;;22.90;99.90;;;;;;5092867;28;20024;-78
2021/06/14 01:16:22;;;;;;;13.07;11.05;;;22.80;99.90;;;;;;5091851;28;20024;-78
2021/06/14 01:19:04;;;;;;;11.70;10.27;;;22.80;99.90;;;;;;5067990;28;20048;-79
2021/06/14 01:21:30;;;;;;;13.15;10.73;;;22.80;99.90;;;;;;5057640;28;20482;-79
2021/06/14 01:24:02;;;;;;;13.10;10.60;;;22.80;99.90;;;;;;5086951;28;20028;-78
2021/06/14 01:26:32;;;;;;;15.10;11.18;;;22.80;99.90;;;;;;5096041;28;20024;-79
2021/06/14 01:29:00;;;;;;;14.43;11.38;;;22.80;99.90;;;;;;5087007;28;20428;-78
2021/06/14 01:31:33;;;;;;;14.27;11.13;;;22.70;99.90;;;;;;5075498;28;20128;-78
2021/06/14 01:34:00;;;;;;;12.63;10.75;;;22.70;99.90;;;;;;5075517;28;20048;-79
2021/06/14 01:36:30;;;;;;;13.20;10.85;;;22.70;99.90;;;;;;5078179;28;20020;-78
2021/06/14 01:38:56;;;;;;;13.40;11.55;;;22.70;99.90;;;;;;5075482;28;20029;-78
2021/06/14 01:41:24;;;;;;;12.70;10.93;;;22.70;99.90;;;;;;5063858;28;20435;-79
2021/06/14 01:43:51;;;;;;;12.10;10.90;;;22.70;99.90;;;;;;5077397;28;20082;-78
2021/06/14 01:46:26;;;;;;;14.35;10.77;;;22.70;99.80;;;;;;5095753;28;20103;-79
2021/06/14 01:48:53;;;;;;;12.13;10.57;;;22.80;99.60;;;;;;5077324;28;20026;-78
2021/06/14 01:51:29;;;;;;;13.02;10.35;;;22.80;99.50;;;;;;5077320;28;20498;-78
2021/06/14 01:54:07;;;;;;;13.20;10.82;;;22.80;99.30;;;;;;5095388;28;20373;-78
2021/06/14 01:56:39;;;;;;;16.75;10.90;;;22.80;99.20;;;;;;5095327;28;20023;-78
2021/06/14 01:59:09;;;;;;;13.05;10.77;;;22.80;99.20;;;;;;5095369;28;20019;-79
2021/06/14 02:01:38;;;;;;;14.50;11.10;;;22.80;99.10;;;;;;5076603;28;20023;-79
2021/06/14 02:04:04;;;;;;;13.55;9.93;;;22.80;98.90;;;;;;5077162;28;20378;-78
2021/06/14 02:06:34;;;;;;;15.40;11.25;;;22.80;98.70;;;;;;5095443;28;20028;-78
2021/06/14 02:09:04;;;;;;;14.13;11.30;;;22.70;99.10;;;;;;5093900;28;20544;-78
2021/06/14 02:11:31;;;;;;;12.68;10.75;;;22.60;99.40;;;;;;5095257;28;20367;-79
2021/06/14 02:13:58;;;;;;;12.68;10.70;;;22.60;99.30;;;;;;5094610;28;20035;-78
2021/06/14 02:16:25;;;;;;;20.55;11.38;;;22.60;99.10;;;;;;5076636;28;20052;-78
2021/06/14 02:18:51;;;;;;;14.40;11.10;;;22.50;99.20;;;;;;5095022;28;20482;-78
2021/06/14 02:21:18;;;;;;;10.93;9.55;;;22.40;99.40;;;;;;5094953;28;20045;-78
2021/06/14 02:23:44;;;;;;;17.30;10.77;;;22.40;99.50;;;;;;5094930;28;20374;-78
2021/06/14 02:26:10;;;;;;;13.07;10.80;;;22.40;99.20;;;;;;5093528;28;20034;-78
2021/06/14 02:28:37;;;;;;;11.63;9.50;;;22.50;98.40;;;;;;5094806;28;20055;-78
2021/06/14 02:31:04;;;;;;;10.80;9.48;;;22.40;98.90;;;;;;5076445;28;20031;-79
2021/06/14 02:33:30;;;;;;;12.88;10.18;;;22.40;99.10;;;;;;5076498;28;20040;-78
2021/06/14 02:35:56;;;;;;;11.07;9.48;;;22.40;99.10;;;;;;5094602;28;20031;-78
2021/06/14 02:38:23;;;;;;;12.98;9.45;;;22.40;98.90;;;;;;5094499;28;20106;-78
2021/06/14 02:40:49;;;;;;;12.23;9.43;;;22.40;99.00;;;;;;5094248;28;20024;-78
2021/06/14 02:43:15;;;;;;;10.73;9.50;;;22.40;99.20;;;;;;5094373;28;20358;-79
2021/06/14 02:45:43;;;;;;;11.02;9.32;;;22.30;98.90;;;;;;5076181;28;20035;-78
2021/06/14 02:48:10;;;;;;;10.65;8.60;;;22.30;98.70;;;;;;5094377;28;20024;-79
2021/06/14 02:50:37;;;;;;;11.05;9.82;;;22.30;98.60;;;;;;5094499;28;20028;-78
2021/06/14 02:53:08;;;;;;;10.93;9.57;;;22.20;98.90;;;;;;5094105;28;20028;-78
2021/06/14 02:55:39;;;;;;;15.70;10.30;;;22.10;98.90;;;;;;5094445;28;20047;-78
2021/06/14 02:58:07;;;;;;;11.77;8.60;;;22.10;98.70;;;;;;5093018;28;20485;-78
2021/06/14 03:00:32;;;;;;;10.95;9.65;;;22.10;98.50;;;;;;5093777;28;20100;-78
2021/06/14 03:03:01;;;;;;;11.13;8.23;;;22.20;98.10;;;;;;5075903;28;20054;-78
2021/06/14 03:05:28;;;;;;;9.25;8.25;;;22.20;97.80;;;;;;5093815;28;20366;-78
2021/06/14 03:07:59;;;;;;;8.68;7.57;;;22.20;97.30;;;;;;5094317;28;20032;-78
2021/06/14 03:10:28;;;;;;;7.67;6.90;;;22.20;97.30;;;;;;5075838;28;20112;-78
2021/06/14 03:12:55;;;;;;;11.60;7.30;;;22.20;97.00;;;;;;5093730;28;20270;-78
2021/06/14 03:15:23;;;;;;;9.27;7.45;;;22.20;96.80;;;;;;5075794;28;20024;-78
2021/06/14 03:17:50;;;;;;;6.50;5.78;;;22.20;96.50;;;;;;5093748;28;20020;-78
2021/06/14 03:20:16;;;;;;;11.75;7.18;;;22.20;96.20;;;;;;5092911;28;20028;-78
2021/06/14 03:22:42;;;;;;;9.32;6.55;;;22.20;96.50;;;;;;5092010;28;20447;-78
2021/06/14 03:25:08;;;;;;;6.72;6.15;;;22.20;96.40;;;;;;5093736;28;20020;-79
2021/06/14 03:27:35;;;;;;;7.00;6.30;;;22.20;96.00;;;;;;5092538;28;20481;-78
2021/06/14 03:30:01;;;;;;;7.10;6.40;;;22.20;96.10;;;;;;5075354;28;20385;-78
2021/06/14 03:32:28;;;;;;;7.57;6.72;;;22.20;95.80;;;;;;5092935;28;20059;-79
2021/06/14 03:34:54;;;;;;;7.10;6.40;;;22.20;95.80;;;;;;5093612;28;20020;-79
2021/06/14 03:37:20;;;;;;;6.47;5.88;;;22.20;96.20;;;;;;5091990;28;20028;-78
2021/06/14 03:39:46;;;;;;;7.32;6.47;;;22.20;95.90;;;;;;5093174;28;20024;-78
2021/06/14 03:42:18;;;;;;;6.22;5.70;;;22.30;95.90;;;;;;5093080;28;20040;-78
2021/06/14 03:44:44;;;;;;;;;;;22.30;95.20;;;;;;5093798;28;20023;-78
2021/06/14 03:47:09;;;;;;;6.60;6.00;;;22.20;95.50;;;;;;5093356;28;19904;-78
2021/06/14 03:49:35;;;;;;;6.10;5.60;;;22.10;95.50;;;;;;5093258;28;20142;-78
2021/06/14 03:52:01;;;;;;;6.47;5.88;;;22.20;95.80;;;;;;5075232;28;20020;-79
2021/06/14 03:54:27;;;;;;;6.43;5.78;;;22.10;96.00;;;;;;5093398;28;20465;-78
2021/06/14 03:56:52;;;;;;;8.98;5.18;;;22.10;96.00;;;;;;5075187;28;20020;-79
2021/06/14 03:59:18;;;;;;;7.07;6.38;;;22.10;95.70;;;;;;5092076;28;20055;-78
2021/06/14 04:01:44;;;;;;;6.72;5.93;;;22.10;96.00;;;;;;5071635;28;20025;-79
2021/06/14 04:06:54;;;;;;;5.57;5.07;;;21.90;95.90;;;;;;5072898;28;20111;-79
2021/06/14 04:09:19;;;;;;;5.65;5.18;;;21.80;96.10;;;;;;5054700;28;20659;-78
2021/06/14 04:11:45;;;;;;;6.28;5.70;;;21.80;96.30;;;;;;5064515;28;20020;-79
2021/06/14 04:14:11;;;;;;;6.25;5.75;;;21.60;96.40;;;;;;5093181;28;20523;-79
2021/06/14 04:16:36;;;;;;;6.20;5.38;;;21.60;96.60;;;;;;5075075;28;20024;-79
2021/06/14 04:19:02;;;;;;;5.88;5.38;;;21.60;96.70;;;;;;5092881;28;20061;-78
2021/06/14 04:21:28;;;;;;;5.60;5.10;;;21.60;96.60;;;;;;5092929;28;20103;-78
2021/06/14 04:23:54;;;;;;;5.50;5.03;;;21.60;96.70;;;;;;5093230;28;20099;-79
2021/06/14 04:26:20;;;;;;;5.90;5.43;;;21.60;96.80;;;;;;5092996;28;20020;-78
2021/06/14 04:28:45;;;;;;;5.68;5.20;;;21.60;96.80;;;;;;5092829;28;20033;-78
2021/06/14 04:31:11;;;;;;;5.50;5.00;;;21.50;96.70;;;;;;5074772;28;20051;-78
2021/06/14 04:33:37;;;;;;;6.32;5.70;;;21.50;96.90;;;;;;5074512;28;20100;-78
2021/06/14 04:36:04;;;;;;;5.47;5.07;;;21.60;96.90;;;;;;5092631;28;20028;-79
2021/06/14 04:38:30;;;;;;;5.40;5.00;;;21.60;96.90;;;;;;5092823;28;20023;-78
2021/06/14 04:40:56;;;;;;;6.63;5.15;;;21.70;96.70;;;;;;5092684;28;20034;-78
2021/06/14 04:43:22;;;;;;;5.25;4.82;;;21.70;96.60;;;;;;5092869;28;20106;-78
2021/06/14 04:45:47;;;;;;;6.30;5.57;;;21.70;96.50;;;;;;5092884;28;20079;-78
2021/06/14 04:48:13;;;;;;;5.05;4.75;;;21.70;96.40;;;;;;5092866;28;20047;-78
2021/06/14 04:50:39;;;;;;;5.82;5.32;;;21.70;96.50;;;;;;5078493;28;20020;-79
2021/06/14 04:53:04;;;;;;;6.03;5.53;;;21.70;96.60;;;;;;5096593;28;20082;-78
2021/06/14 04:55:30;;;;;;;5.53;5.05;;;21.70;96.50;;;;;;5096866;28;20397;-79
2021/06/14 04:57:56;;;;;;;5.22;4.80;;;21.70;96.60;;;;;;5096639;28;20050;-78
2021/06/14 05:00:22;;;;;;;5.70;5.20;;;21.70;96.70;;;;;;5096744;28;20028;-79
2021/06/14 05:02:49;;;;;;;5.47;4.75;;;21.70;96.80;;;;;;5096494;28;20459;-79
2021/06/14 05:05:15;;;;;;;6.57;4.90;;;21.70;96.60;;;;;;5078137;28;20106;-78
2021/06/14 05:07:41;;;;;;;8.35;5.35;;;21.70;96.50;;;;;;5096487;28;20079;-79
2021/06/14 05:10:07;;;;;;;5.53;5.03;;;21.80;96.60;;;;;;5096058;28;20020;-78
2021/06/14 05:12:33;;;;;;;4.53;4.05;;;21.90;96.40;;;;;;5096549;28;20106;-78
2021/06/14 05:14:59;;;;;;;4.75;4.35;;;21.90;96.40;;;;;;5096336;28;20028;-78
2021/06/14 05:17:24;;;;;;;5.15;4.70;;;22.00;96.20;;;;;;5096323;28;20468;-78
2021/06/14 05:19:50;;;;;;;7.85;5.20;;;22.00;96.30;;;;;;5094749;28;20393;-78
2021/06/14 05:22:16;;;;;;;5.32;4.80;;;22.00;96.40;;;;;;5095942;28;20024;-78
2021/06/14 05:24:41;;;;;;;5.35;4.20;;;22.10;96.60;;;;;;5077950;28;20382;-77
2021/06/14 05:27:08;;;;;;;6.30;4.50;;;22.10;96.50;;;;;;5096016;28;20020;-78
2021/06/14 05:29:33;;;;;;;4.80;4.35;;;22.10;96.50;;;;;;5095976;28;20065;-77
2021/06/14 05:31:59;;;;;;;5.32;4.93;;;22.10;96.30;;;;;;5095734;28;20473;-78
2021/06/14 05:34:25;;;;;;;4.95;4.32;;;22.20;96.50;;;;;;5083886;28;20032;-77
2021/06/14 05:36:52;;;;;;;5.47;4.97;;;22.20;96.60;;;;;;5075641;28;20486;-77
2021/06/14 05:39:17;;;;;;;5.03;4.63;;;22.30;96.50;;;;;;5075605;28;20025;-78
2021/06/14 05:41:43;;;;;;;4.90;4.50;;;22.40;96.30;;;;;;5085071;28;20054;-78
2021/06/14 05:44:09;;;;;;;4.85;4.55;;;22.50;96.30;;;;;;5095960;28;20025;-78
2021/06/14 05:46:35;;;;;;;4.72;4.43;;;22.50;96.20;;;;;;5077534;28;20077;-78
2021/06/14 05:49:03;;;;;;;4.55;4.25;;;22.50;96.10;;;;;;5169856;22;20067;-78
2021/06/14 05:51:29;;;;;;;6.78;4.80;;;22.60;96.00;;;;;;5098066;28;20038;-78
2021/06/14 05:53:55;;;;;;;7.13;4.50;;;22.60;96.50;;;;;;5116443;28;20357;-78
2021/06/14 05:56:20;;;;;;;4.63;4.22;;;22.70;95.90;;;;;;5116178;28;20028;-78
2021/06/14 05:58:46;;;;;;;4.53;4.13;;;22.80;95.80;;;;;;5116034;28;20035;-78
2021/06/14 06:01:12;;;;;;;4.60;4.30;;;22.90;96.00;;;;;;5115899;28;20034;-78
2021/06/14 06:03:38;;;;;;;4.55;4.15;;;22.90;95.70;;;;;;5115463;28;20024;-77
2021/06/14 06:06:04;;;;;;;4.70;3.97;;;23.00;95.50;;;;;;5115684;28;20038;-77
2021/06/14 06:08:30;;;;;;;5.65;4.95;;;23.10;95.60;;;;;;5115650;28;20023;-77
2021/06/14 06:10:56;;;;;;;4.38;4.07;;;23.10;96.30;;;;;;5115331;28;20015;-78
2021/06/14 06:13:21;;;;;;;4.43;4.07;;;23.20;94.10;;;;;;5097482;28;20031;-77
2021/06/14 06:15:47;;;;;;;4.00;3.70;;;23.30;94.20;;;;;;5115552;28;20112;-77
2021/06/14 06:18:13;;;;;;;4.30;4.00;;;23.40;94.40;;;;;;5097187;28;20029;-77
2021/06/14 06:20:39;;;;;;;3.92;3.72;;;23.50;94.20;;;;;;5115500;28;20030;-77
2021/06/14 06:23:05;;;;;;;5.07;4.70;;;23.60;94.70;;;;;;5115388;28;20031;-78
2021/06/14 06:25:31;;;;;;;4.10;3.80;;;23.60;94.10;;;;;;5115223;28;20016;-77
2021/06/14 06:27:57;;;;;;;4.03;3.70;;;23.70;93.70;;;;;;5115100;28;20039;-77
2021/06/14 06:30:26;;;;;;;3.35;3.10;;;23.80;93.60;;;;;;5096774;28;20061;-77
2021/06/14 06:32:52;;;;;;;2.70;2.55;;;23.90;90.10;;;;;;5115154;28;20051;-77
2021/06/14 06:35:22;;;;;;;3.00;2.80;;;24.10;88.20;;;;;;5114939;28;20052;-77
2021/06/14 06:37:48;;;;;;;3.03;2.83;;;24.10;89.10;;;;;;5114933;28;20026;-77
2021/06/14 06:40:15;;;;;;;3.08;2.88;;;24.20;85.70;;;;;;5115083;28;20062;-77
2021/06/14 06:42:41;;;;;;;2.70;2.47;;;24.20;87.00;;;;;;5114213;27;20444;-77
2021/06/14 06:45:09;;;;;;;3.92;2.55;;;24.20;87.60;;;;;;5135370;27;20028;-77
2021/06/14 06:47:36;;;;;;;2.50;2.25;;;24.20;90.00;;;;;;5135435;27;20583;-77
2021/06/14 06:50:04;;;;;;;2.45;2.35;;;24.30;84.90;;;;;;5116800;27;20430;-77
2021/06/14 06:52:29;;;;;;;6.22;2.45;;;24.30;84.90;;;;;;5116514;27;20114;-77
2021/06/14 06:54:55;;;;;;;2.50;2.30;;;24.30;85.30;;;;;;5123999;27;20094;-77
2021/06/14 06:57:21;;;;;;;2.78;2.58;;;24.30;86.00;;;;;;5114560;28;20034;-77
2021/06/14 06:59:47;;;;;;;2.30;2.20;;;24.40;87.00;;;;;;5110739;27;20390;-77
2021/06/14 07:02:13;;;;;;;2.95;2.70;;;24.40;84.60;;;;;;5109408;27;20031;-78
2021/06/14 07:04:41;;;;;;;3.20;3.00;;;24.50;85.90;;;;;;5107617;28;20069;-77
2021/06/14 07:07:07;;;;;;;2.80;2.58;;;24.50;85.90;;;;;;5107437;28;20028;-77
2021/06/14 07:09:33;;;;;;;2.83;2.67;;;24.50;83.40;;;;;;5101577;28;20060;-77
2021/06/14 07:11:59;;;;;;;3.08;2.50;;;24.40;84.80;;;;;;5096662;28;20020;-77
2021/06/14 07:14:25;;;;;;;2.33;2.20;;;24.50;87.40;;;;;;5112797;28;20077;-77
2021/06/14 07:16:50;;;;;;;3.13;2.90;;;24.60;88.10;;;;;;5113648;28;20019;-77
2021/06/14 07:19:17;;;;;;;3.72;2.90;;;24.60;89.00;;;;;;5112780;28;20027;-77
2021/06/14 07:21:43;;;;;;;3.10;2.70;;;24.70;88.80;;;;;;5112638;28;20091;-77
2021/06/14 07:24:09;;;;;;;6.28;2.97;;;24.70;87.60;;;;;;5092644;28;20023;-77
2021/06/14 07:26:34;;;;;;;3.22;2.88;;;24.70;88.60;;;;;;5106561;28;20393;-77
2021/06/14 07:29:01;;;;;;;3.30;3.10;;;24.80;90.00;;;;;;5112606;28;20015;-77
2021/06/14 07:31:27;;;;;;;3.10;2.90;;;24.80;87.30;;;;;;5107779;28;20085;-77
2021/06/14 07:33:57;;;;;;;4.38;2.65;;;24.90;86.90;;;;;;5089765;28;20027;-77
2021/06/14 07:36:24;;;;;;;3.53;3.22;;;25.00;85.30;;;;;;5107687;28;20107;-77
2021/06/14 07:38:50;;;;;;;3.35;3.15;;;25.00;85.90;;;;;;5108237;28;20486;-77
2021/06/14 07:41:16;;;;;;;2.95;2.78;;;25.10;87.40;;;;;;5110816;28;20040;-77
2021/06/14 07:43:42;;;;;;;3.30;3.03;;;25.10;86.00;;;;;;5109662;28;20024;-77
2021/06/14 07:46:07;;;;;;;2.38;2.28;;;25.20;87.30;;;;;;5111770;28;20019;-77
2021/06/14 07:48:35;;;;;;;3.45;2.65;;;25.30;87.30;;;;;;5083980;28;20052;-77
2021/06/14 07:51:02;;;;;;;3.38;3.17;;;25.30;84.20;;;;;;5088727;28;20111;-77
2021/06/14 07:53:27;;;;;;;6.65;2.90;;;25.30;85.40;;;;;;5090612;28;20111;-78
2021/06/14 07:55:58;;;;;;;3.28;3.08;;;25.30;85.60;;;;;;5088527;28;20530;-77
2021/06/14 07:58:25;;;;;;;3.47;3.20;;;25.30;85.70;;;;;;5086513;28;20115;-77
2021/06/14 08:00:52;;;;;;;4.07;2.92;;;25.30;86.60;;;;;;5092179;28;20028;-77
2021/06/14 08:03:24;;;;;;;3.67;3.42;;;25.30;86.70;;;;;;5092269;28;20362;-77
2021/06/14 08:05:50;;;;;;;4.47;3.95;;;25.30;89.50;;;;;;5091961;28;20016;-78
2021/06/14 08:08:16;;;;;;;3.95;3.65;;;25.50;90.30;;;;;;5089584;28;20019;-77
2021/06/14 08:10:45;;;;;;;4.07;3.78;;;25.50;88.60;;;;;;5092174;28;20035;-77
2021/06/14 08:13:21;;;;;;;4.68;3.55;;;25.60;87.20;;;;;;5085736;28;20016;-77
2021/06/14 08:15:47;;;;;;;3.60;3.38;;;25.60;88.90;;;;;;5090173;28;20521;-77
2021/06/14 08:18:28;;;;;;;3.63;3.33;;;25.70;85.50;;;;;;5091626;28;20024;-77
2021/06/14 08:26:14;;;;;;;5.05;3.47;;;25.70;87.50;;;;;;5096416;28;20047;-77
2021/06/14 08:28:40;;;;;;;3.83;3.53;;;25.70;86.00;;;;;;5096574;28;20012;-78
2021/06/14 08:31:06;;;;;;;3.92;3.53;;;25.80;85.80;;;;;;5096529;28;20034;-77
2021/06/14 08:33:32;;;;;;;4.18;3.88;;;25.80;85.50;;;;;;5095959;28;20024;-78
2021/06/14 08:35:58;;;;;;;3.30;3.10;;;25.90;85.60;;;;;;5089314;28;20550;-78
2021/06/14 08:38:23;;;;;;;3.50;3.30;;;25.90;85.60;;;;;;5091577;28;20024;-77
2021/06/14 08:40:49;;;;;;;3.60;3.30;;;25.90;86.30;;;;;;5096035;28;20059;-77
2021/06/14 08:43:17;;;;;;;5.20;4.38;;;25.80;85.90;;;;;;5095856;28;20099;-78
2021/06/14 08:45:43;;;;;;;3.70;3.50;;;25.90;87.30;;;;;;5096146;28;20031;-77
2021/06/14 08:48:11;;;;;;;3.78;3.47;;;25.90;88.20;;;;;;5096702;28;20027;-78
2021/06/14 08:50:38;;;;;;;3.72;3.53;;;26.00;86.20;;;;;;5095038;28;20480;-77
2021/06/14 08:53:05;;;;;;;4.25;3.83;;;26.10;85.40;;;;;;5105521;28;20501;-78
2021/06/14 08:55:31;;;;;;;4.30;3.95;;;26.10;85.50;;;;;;5112004;28;20027;-78
2021/06/14 08:57:57;;;;;;;4.00;3.80;;;26.20;86.30;;;;;;5116573;28;20023;-78
2021/06/14 09:00:28;;;;;;;4.63;3.30;;;26.20;88.40;;;;;;5097968;28;20391;-78
2021/06/14 09:02:54;;;;;;;3.37;3.07;;;26.30;86.30;;;;;;5115629;28;20034;-78
2021/06/14 09:05:24;;;;;;;3.67;3.47;;;26.40;86.70;;;;;;5108025;28;20099;-78
2021/06/14 09:07:51;;;;;;;3.38;3.17;;;26.40;86.60;;;;;;5116253;28;20024;-78
2021/06/14 09:10:37;;;;;;;4.47;4.18;;;26.50;87.40;;;;;;5097662;28;20051;-79
2021/06/14 09:13:12;;;;;;;3.75;3.55;;;26.50;84.90;;;;;;5110861;28;20030;-78
2021/06/14 09:15:38;;;;;;;5.03;4.63;;;26.60;86.90;;;;;;5097503;28;20031;-78
2021/06/14 09:18:26;;;;;;;4.18;3.85;;;26.50;85.50;;;;;;5097561;28;20037;-78
2021/06/14 09:20:56;;;;;;;3.70;3.40;;;26.50;86.20;;;;;;5115915;27;20027;-79
2021/06/14 09:23:25;;;;;;;4.00;3.55;;;26.50;84.50;;;;;;5103328;28;20038;-78
2021/06/14 09:25:51;;;;;;;3.50;3.30;;;26.60;84.00;;;;;;5115677;28;20043;-79
2021/06/14 09:28:18;;;;;;;4.47;4.10;;;26.60;84.70;;;;;;5114220;28;20458;-78
2021/06/14 09:30:44;;;;;;;3.88;3.58;;;26.70;86.40;;;;;;5114972;28;20080;-78
2021/06/14 09:33:24;;;;;;;4.38;3.50;;;26.70;85.30;;;;;;5095709;28;20023;-78
2021/06/14 09:35:52;;;;;;;4.15;3.85;;;26.70;84.80;;;;;;5113221;28;20024;-78
2021/06/14 09:38:23;;;;;;;6.18;3.58;;;26.70;82.40;;;;;;5111682;28;20030;-78
2021/06/14 09:40:57;;;;;;;5.68;3.65;;;26.70;84.10;;;;;;5113526;28;20028;-78
2021/06/14 09:43:37;;;;;;;3.72;3.53;;;26.70;84.30;;;;;;5096995;28;20115;-77
2021/06/14 09:46:30;;;;;;;3.88;3.55;;;26.90;84.10;;;;;;5097416;28;20034;-78
2021/06/14 09:49:02;;;;;;;4.28;3.97;;;26.90;80.70;;;;;;5095018;28;20044;-78
2021/06/14 09:51:29;;;;;;;;;;;26.90;81.70;;;;;;5116038;28;20030;-78
2021/06/14 09:53:55;;;;;;;4.75;4.35;;;26.80;84.10;;;;;;5116003;28;19917;-78
2021/06/14 09:56:26;;;;;;;5.25;4.82;;;26.90;83.60;;;;;;5113638;28;20031;-78
2021/06/14 09:58:54;;;;;;;5.78;5.28;;;26.90;86.70;;;;;;5077503;28;20060;-78
2021/06/14 10:01:36;;;;;;;5.60;5.10;;;27.00;85.60;;;;;;5100225;28;20032;-78
2021/06/14 10:04:09;;;;;;;4.15;3.95;;;27.10;84.40;;;;;;5099254;28;20477;-78
2021/06/14 10:06:42;;;;;;;4.78;4.47;;;27.20;83.60;;;;;;5113279;28;20431;-78
2021/06/14 10:09:15;;;;;;;6.30;5.47;;;27.20;85.10;;;;;;5115677;28;20491;-78
2021/06/14 10:11:43;;;;;;;5.53;5.03;;;27.30;84.80;;;;;;5094148;28;20020;-78
2021/06/14 10:14:18;;;;;;;4.60;4.22;;;27.40;84.50;;;;;;5086362;28;20073;-78
2021/06/14 10:16:46;;;;;;;8.35;4.95;;;27.50;84.10;;;;;;5078303;28;20111;-78
2021/06/14 10:19:14;;;;;;;4.97;4.68;;;27.40;83.80;;;;;;5094996;28;20062;-78
2021/06/14 10:21:51;;;;;;;4.38;4.07;;;27.40;83.10;;;;;;5094806;28;20074;-78
2021/06/14 10:24:21;;;;;;;5.10;4.60;;;27.40;83.30;;;;;;5095049;28;20031;-78
2021/06/14 10:26:53;;;;;;;4.63;4.32;;;27.40;85.50;;;;;;5076861;28;20017;-78
2021/06/14 10:29:19;;;;;;;;;;;27.60;82.60;;;;;;5101908;28;20118;-78
2021/06/14 10:31:47;;;;;;;5.13;4.70;;;27.60;81.70;;;;;;5115293;28;20352;-78
2021/06/14 10:34:14;;;;;;;5.13;4.72;;;27.50;78.90;;;;;;5115507;28;20016;-78
2021/06/14 10:36:44;;;;;;;5.45;5.05;;;27.50;81.40;;;;;;5115021;28;20408;-78
2021/06/14 10:39:11;;;;;;;6.18;4.95;;;27.90;85.50;;;;;;5097010;28;20019;-78
2021/06/14 10:41:37;;;;;;;5.10;4.70;;;27.90;85.80;;;;;;5123704;27;20046;-78
2021/06/14 10:44:06;;;;;;;5.63;5.13;;;28.00;85.00;;;;;;5135473;27;20381;-78
2021/06/14 10:46:32;;;;;;;6.45;4.63;;;28.00;82.20;;;;;;5134692;27;20404;-78
2021/06/14 10:49:01;;;;;;;9.88;4.75;;;28.10;81.50;;;;;;5135238;27;20039;-78
2021/06/14 10:51:31;;;;;;;4.70;4.28;;;28.30;83.20;;;;;;5135428;27;20102;-78
2021/06/14 10:54:05;;;;;;;5.28;4.88;;;28.50;84.00;;;;;;5117229;27;20027;-78
2021/06/14 10:56:31;;;;;;;5.88;5.47;;;28.40;81.40;;;;;;5135350;27;20023;-78
2021/06/14 10:59:03;;;;;;;5.05;4.60;;;28.50;81.70;;;;;;5116714;27;20031;-78
2021/06/14 11:01:44;;;;;;;7.65;4.47;;;28.60;80.30;;;;;;5127547;27;20023;-76
2021/06/14 11:04:25;;;;;;;5.70;4.72;;;28.70;81.70;;;;;;5112859;28;20019;-76
2021/06/14 11:06:53;;;;;;;5.00;4.60;;;28.90;80.90;;;;;;5108903;28;20025;-77
2021/06/14 11:09:19;;;;;;;5.13;4.72;;;29.00;79.00;;;;;;5092150;28;20016;-77
2021/06/14 11:11:45;;;;;;;5.18;4.68;;;29.00;76.80;;;;;;5111295;28;20038;-78
2021/06/14 11:14:11;;;;;;;5.28;4.88;;;29.00;77.70;;;;;;5110991;28;20381;-78
2021/06/14 11:16:39;;;;;;;4.85;4.45;;;29.00;79.10;;;;;;5111523;28;20095;-77
2021/06/14 11:19:08;;;;;;;7.90;5.10;;;29.20;79.00;;;;;;5111520;28;20012;-77
2021/06/14 11:21:34;;;;;;;5.80;4.63;;;29.30;79.50;;;;;;5111068;28;20015;-77
2021/06/14 11:24:12;;;;;;;5.10;4.70;;;29.40;78.20;;;;;;5107143;28;20035;-77
2021/06/14 11:26:39;;;;;;;9.95;5.80;;;29.40;76.20;;;;;;5095375;28;20134;-77
2021/06/14 11:29:17;;;;;;;6.32;5.05;;;29.40;75.50;;;;;;5090825;28;20020;-77
2021/06/14 11:32:01;;;;;;;8.10;5.28;;;29.30;72.50;;;;;;5090763;28;20016;-77
2021/06/14 11:34:37;;;;;;;6.63;5.10;;;29.20;75.70;;;;;;5055378;28;20077;-77
2021/06/14 11:37:03;;;;;;;5.50;5.03;;;29.30;76.40;;;;;;5089494;28;20183;-77
2021/06/14 11:39:29;;;;;;;5.25;4.85;;;29.40;75.50;;;;;;5091353;28;20472;-77
2021/06/14 11:42:06;;;;;;;6.03;5.60;;;29.40;74.10;;;;;;5091978;28;20020;-77
2021/06/14 11:44:34;;;;;;;6.05;5.45;;;29.40;71.90;;;;;;5110538;28;20102;-77
2021/06/14 11:47:22;;;;;;;5.00;4.65;;;29.50;76.20;;;;;;5092780;28;20051;-77
2021/06/14 11:49:50;;;;;;;5.10;4.50;;;29.60;76.50;;;;;;5109106;28;20044;-77
2021/06/14 11:52:21;;;;;;;5.72;5.18;;;29.90;75.10;;;;;;5091557;28;20034;-78
2021/06/14 11:54:53;;;;;;;5.38;4.97;;;29.90;73.30;;;;;;5109708;28;20023;-77
2021/06/14 11:57:35;;;;;;;5.43;5.13;;;30.00;76.70;;;;;;5090504;28;20523;-77
2021/06/14 12:00:01;;;;;;;5.38;4.97;;;30.30;75.30;;;;;;5093233;28;20023;-77
2021/06/14 12:02:29;;;;;;;5.20;4.80;;;30.20;72.00;;;;;;5113038;28;20096;-77
2021/06/14 12:05:00;;;;;;;5.70;5.28;;;30.20;71.60;;;;;;5095555;28;20536;-77
2021/06/14 12:07:33;;;;;;;5.70;5.07;;;30.30;72.50;;;;;;5113549;28;20442;-76
2021/06/14 12:10:21;;;;;;;6.40;4.20;;;30.30;72.90;;;;;;5094851;28;20020;-76
2021/06/14 12:13:10;;;;;;;5.25;4.85;;;30.30;73.20;;;;;;5093976;28;20024;-77
2021/06/14 12:15:38;;;;;;;5.10;4.35;;;30.50;72.10;;;;;;5113097;28;20020;-77
2021/06/14 12:18:05;;;;;;;5.97;3.88;;;30.50;71.40;;;;;;5113106;28;20027;-77
2021/06/14 12:20:37;;;;;;;4.63;4.22;;;30.50;70.20;;;;;;5113412;28;20023;-77
2021/06/14 12:23:12;;;;;;;5.10;4.60;;;30.50;74.00;;;;;;5108887;28;20024;-77
2021/06/14 12:25:42;;;;;;;7.38;4.90;;;30.80;74.90;;;;;;5119825;28;20024;-77
2021/06/14 12:28:13;;;;;;;6.15;4.90;;;30.80;69.50;;;;;;5109647;28;20027;-77
2021/06/14 12:30:40;;;;;;;4.93;4.53;;;30.90;72.30;;;;;;5092121;28;20027;-77
2021/06/14 12:33:06;;;;;;;16.48;5.03;;;31.10;69.40;;;;;;5110861;28;20081;-77
2021/06/14 12:35:31;;;;;;;4.95;4.55;;;31.10;68.60;;;;;;5110505;28;20024;-77
2021/06/14 12:38:05;;;;;;;6.85;4.20;;;30.60;67.10;;;;;;5110283;28;20020;-77
2021/06/14 12:40:31;;;;;;;4.40;4.10;;;30.50;69.80;;;;;;5110604;28;20020;-77
2021/06/14 12:43:03;;;;;;;4.13;3.83;;;30.60;70.30;;;;;;5094008;28;20197;-77
2021/06/14 12:45:30;;;;;;;4.45;4.20;;;30.90;71.50;;;;;;5113360;28;20012;-77
2021/06/14 12:48:04;;;;;;;4.97;4.57;;;31.00;72.80;;;;;;5113137;28;20454;-77
2021/06/14 12:50:36;;;;;;;5.30;4.22;;;31.00;70.80;;;;;;5113161;28;20027;-77
2021/06/14 12:53:04;;;;;;;4.15;3.85;;;31.10;72.60;;;;;;5128924;28;20059;-77
2021/06/14 12:55:35;;;;;;;4.22;3.83;;;31.10;70.30;;;;;;5113319;28;20074;-77
2021/06/14 12:58:07;;;;;;;4.72;4.32;;;31.20;69.30;;;;;;5113028;28;20423;-76